Time;durP1;ratioP1;P1;durP2;ratioP2;P2;SDS_P1;SDS_P2;PMS_P1;PMS_P2;Temp;Humidity;BMP_temperature;BMP_pressure;BME280_temperature;BME280_humidity;BME280_pressure;Samples;Min_cycle;Max_cycle;Signal;HPM_P1;HPM_P2
2021/08/25 00:01:07;;;;;;;4.78;1.90;;;16.20;99.90;;;;;;5093422;28;20024;-61
2021/08/25 00:03:33;;;;;;;7.15;2.10;;;16.30;99.90;;;;;;5091665;28;20203;-61
2021/08/25 00:05:58;;;;;;;3.40;1.85;;;16.30;99.90;;;;;;5093350;28;20016;-61
2021/08/25 00:08:24;;;;;;;4.50;1.92;;;16.20;99.90;;;;;;5092879;28;20071;-61
2021/08/25 00:10:50;;;;;;;4.75;2.30;;;16.20;99.90;;;;;;5092124;28;20073;-61
2021/08/25 00:13:16;;;;;;;3.45;2.40;;;16.10;99.90;;;;;;5091093;28;20068;-62
2021/08/25 00:15:43;;;;;;;5.60;2.58;;;16.10;99.90;;;;;;5091764;28;20115;-61
2021/08/25 00:18:09;;;;;;;3.72;2.15;;;16.30;99.90;;;;;;5092933;28;20040;-61
2021/08/25 00:20:36;;;;;;;4.47;2.50;;;16.20;99.90;;;;;;5091201;28;20127;-61
2021/08/25 00:23:02;;;;;;;4.10;2.33;;;16.20;99.90;;;;;;5092840;28;20058;-61
2021/08/25 00:25:27;;;;;;;7.38;2.38;;;16.10;99.90;;;;;;5092729;28;20047;-61
2021/08/25 00:27:54;;;;;;;6.30;2.40;;;16.10;99.90;;;;;;5092907;28;20418;-61
2021/08/25 00:30:19;;;;;;;4.10;2.33;;;16.00;99.90;;;;;;5091261;28;20472;-62
2021/08/25 00:32:45;;;;;;;3.40;2.13;;;16.00;99.90;;;;;;5091841;28;20032;-61
2021/08/25 00:35:12;;;;;;;2.90;1.83;;;15.80;99.90;;;;;;5093204;28;20110;-61
2021/08/25 00:37:38;;;;;;;4.93;2.00;;;15.80;99.90;;;;;;5092455;28;20365;-61
2021/08/25 00:40:05;;;;;;;5.22;2.25;;;15.80;99.90;;;;;;5091617;28;20024;-61
2021/08/25 00:42:31;;;;;;;3.42;2.42;;;15.90;99.90;;;;;;5092826;28;20055;-60
2021/08/25 00:45:01;;;;;;;6.25;2.38;;;16.00;99.90;;;;;;5092738;28;20128;-61
2021/08/25 00:47:26;;;;;;;4.38;1.88;;;15.90;99.90;;;;;;5090522;28;20075;-60
2021/08/25 00:49:52;;;;;;;4.45;2.25;;;16.00;99.90;;;;;;5074286;28;20051;-59
2021/08/25 00:52:17;;;;;;;3.65;1.80;;;16.00;99.90;;;;;;5092167;28;20032;-62
2021/08/25 00:54:43;;;;;;;3.00;1.95;;;16.00;99.90;;;;;;5092640;28;20431;-61
2021/08/25 00:57:09;;;;;;;8.55;2.72;;;16.00;99.90;;;;;;5092968;28;20465;-59
2021/08/25 00:59:35;;;;;;;5.30;1.90;;;15.90;99.90;;;;;;5090671;28;20035;-60
2021/08/25 01:02:24;;;;;;;3.45;2.33;;;16.00;99.90;;;;;;5091093;28;20020;-60
2021/08/25 01:04:54;;;;;;;4.68;2.40;;;16.00;99.90;;;;;;5092046;28;20044;-60
2021/08/25 01:07:22;;;;;;;5.25;2.40;;;16.00;99.90;;;;;;5091747;28;20034;-61
2021/08/25 01:09:48;;;;;;;5.18;2.20;;;16.00;99.90;;;;;;5092317;28;20354;-60
2021/08/25 01:12:14;;;;;;;3.92;2.38;;;16.00;99.90;;;;;;5090672;28;20073;-59
2021/08/25 01:14:40;;;;;;;4.32;2.58;;;15.90;99.90;;;;;;5091611;28;20044;-60
2021/08/25 01:17:07;;;;;;;6.43;2.13;;;15.80;99.90;;;;;;5090787;28;20088;-60
2021/08/25 01:20:00;;;;;;;5.22;2.47;;;15.80;99.90;;;;;;5091459;28;20024;-60
2021/08/25 01:22:26;;;;;;;4.35;2.30;;;15.80;99.90;;;;;;5091150;28;20139;-60
2021/08/25 01:24:56;;;;;;;3.40;2.13;;;15.80;99.90;;;;;;5092360;28;20198;-60
2021/08/25 01:27:24;;;;;;;4.68;1.98;;;15.70;99.90;;;;;;5089830;28;20136;-60
2021/08/25 01:29:51;;;;;;;5.20;2.60;;;15.70;99.90;;;;;;5090497;28;20032;-61
2021/08/25 01:32:17;;;;;;;3.67;2.42;;;15.70;99.90;;;;;;5091724;28;20323;-60
2021/08/25 01:34:52;;;;;;;13.00;2.83;;;15.70;99.90;;;;;;5090437;28;20028;-60
2021/08/25 01:37:28;;;;;;;4.93;2.45;;;15.70;99.90;;;;;;5091227;28;20435;-72
2021/08/25 01:39:53;;;;;;;4.97;2.05;;;15.80;99.90;;;;;;5091660;28;20115;-60
2021/08/25 01:42:20;;;;;;;5.38;1.92;;;15.80;99.90;;;;;;5090980;28;20418;-64
2021/08/25 01:44:47;;;;;;;4.30;2.30;;;15.70;99.90;;;;;;5091654;28;20101;-61
2021/08/25 01:47:14;;;;;;;9.27;2.90;;;15.60;99.90;;;;;;5091130;28;20032;-60
2021/08/25 01:49:41;;;;;;;3.22;1.98;;;15.60;99.90;;;;;;5089324;28;20028;-61
2021/08/25 01:52:07;;;;;;;4.22;1.95;;;15.60;99.90;;;;;;5090999;28;20043;-60
2021/08/25 01:54:32;;;;;;;5.60;2.28;;;15.60;99.90;;;;;;5090801;28;20122;-60
2021/08/25 01:56:58;;;;;;;6.90;2.47;;;15.50;99.90;;;;;;5089759;28;20152;-61
2021/08/25 01:59:24;;;;;;;6.38;2.60;;;15.40;99.90;;;;;;5090335;28;20100;-61
2021/08/25 02:01:49;;;;;;;3.20;2.03;;;15.30;99.90;;;;;;5091201;28;20132;-61
2021/08/25 02:04:15;;;;;;;3.22;2.00;;;15.30;99.90;;;;;;5090973;28;20032;-61
2021/08/25 02:06:41;;;;;;;3.60;2.05;;;15.40;99.90;;;;;;5090388;28;20123;-61
2021/08/25 02:09:06;;;;;;;6.95;2.15;;;15.20;99.90;;;;;;5090955;28;20142;-61
2021/08/25 02:11:33;;;;;;;4.95;2.38;;;15.40;99.90;;;;;;5088947;28;20504;-61
2021/08/25 02:13:59;;;;;;;2.72;1.95;;;15.40;99.90;;;;;;5089827;28;20123;-61
2021/08/25 02:16:24;;;;;;;4.90;2.53;;;15.30;99.90;;;;;;5090562;28;20016;-61
2021/08/25 02:18:50;;;;;;;2.88;2.20;;;15.30;99.90;;;;;;5090934;28;20067;-60
2021/08/25 02:21:16;;;;;;;3.95;2.55;;;15.30;99.90;;;;;;5091119;28;20044;-61
2021/08/25 02:23:42;;;;;;;3.63;1.80;;;15.30;99.90;;;;;;5089132;28;20469;-61
2021/08/25 02:26:15;;;;;;;5.97;2.33;;;15.30;99.90;;;;;;5089896;28;20034;-60
2021/08/25 02:28:51;;;;;;;4.00;2.20;;;15.30;99.90;;;;;;5090592;28;20464;-60
2021/08/25 02:31:18;;;;;;;3.15;2.08;;;15.20;99.90;;;;;;5091453;28;20049;-61
2021/08/25 02:33:44;;;;;;;3.90;2.20;;;15.30;99.90;;;;;;5090154;28;20028;-60
2021/08/25 02:36:10;;;;;;;6.65;2.75;;;15.40;99.90;;;;;;5091032;28;20084;-61
2021/08/25 02:38:37;;;;;;;6.95;3.03;;;15.30;99.90;;;;;;5088910;28;20039;-61
2021/08/25 02:41:05;;;;;;;9.65;3.28;;;15.30;99.90;;;;;;5089096;28;20084;-60
2021/08/25 02:43:30;;;;;;;4.68;2.38;;;15.20;99.90;;;;;;5090381;28;20120;-61
2021/08/25 02:45:56;;;;;;;4.53;1.90;;;15.20;99.90;;;;;;5091126;28;20386;-60
2021/08/25 02:48:22;;;;;;;2.95;2.10;;;15.20;99.90;;;;;;5089517;28;20031;-60
2021/08/25 02:50:48;;;;;;;4.13;2.42;;;15.00;99.90;;;;;;5091028;28;20043;-61
2021/08/25 02:53:16;;;;;;;5.20;2.90;;;15.00;99.90;;;;;;5090466;28;20024;-61
2021/08/25 02:55:42;;;;;;;6.10;2.63;;;15.00;99.90;;;;;;5088716;28;20032;-60
2021/08/25 02:58:07;;;;;;;3.22;2.13;;;15.10;99.90;;;;;;5090430;28;20093;-60
2021/08/25 03:00:33;;;;;;;5.00;2.80;;;15.10;99.90;;;;;;5090115;28;20059;-61
2021/08/25 03:02:58;;;;;;;5.07;2.50;;;15.10;99.90;;;;;;5090561;28;20034;-60
2021/08/25 03:05:24;;;;;;;3.75;2.17;;;14.90;99.90;;;;;;5089986;28;20020;-63
2021/08/25 03:07:50;;;;;;;4.22;1.80;;;14.80;99.90;;;;;;5090502;28;20036;-61
2021/08/25 03:10:15;;;;;;;8.50;2.88;;;14.90;99.90;;;;;;5089387;28;20024;-61
2021/08/25 03:12:41;;;;;;;5.80;2.20;;;14.80;99.90;;;;;;5089730;28;20035;-61
2021/08/25 03:15:08;;;;;;;3.83;2.35;;;14.90;99.90;;;;;;5090384;28;20055;-60
2021/08/25 03:17:34;;;;;;;7.32;2.05;;;14.90;99.90;;;;;;5088401;28;20130;-60
2021/08/25 03:19:59;;;;;;;5.40;3.05;;;14.90;99.90;;;;;;5090399;28;20039;-61
2021/08/25 03:22:28;;;;;;;5.22;2.65;;;14.80;99.90;;;;;;5088387;28;20200;-63
2021/08/25 03:24:54;;;;;;;5.50;2.53;;;14.90;99.90;;;;;;5090444;28;20023;-60
2021/08/25 03:27:19;;;;;;;5.63;2.15;;;14.90;99.90;;;;;;5090127;28;20032;-60
2021/08/25 03:29:45;;;;;;;3.72;2.05;;;14.90;99.90;;;;;;5089859;28;20405;-60
2021/08/25 03:32:11;;;;;;;5.32;2.38;;;14.90;99.90;;;;;;5090425;28;20035;-60
2021/08/25 03:34:36;;;;;;;7.85;2.25;;;14.90;99.90;;;;;;5088313;28;20027;-60
2021/08/25 03:37:03;;;;;;;7.03;2.35;;;15.00;99.90;;;;;;5087672;28;20050;-60
2021/08/25 03:39:29;;;;;;;4.75;2.05;;;14.90;99.90;;;;;;5074752;28;20032;-60
2021/08/25 03:41:55;;;;;;;4.05;2.00;;;14.90;99.90;;;;;;5070799;28;20082;-60
2021/08/25 03:44:20;;;;;;;4.13;2.13;;;14.90;99.90;;;;;;5069435;28;20124;-60
2021/08/25 03:46:46;;;;;;;4.70;2.28;;;14.80;99.90;;;;;;5069026;28;20111;-60
2021/08/25 03:49:11;;;;;;;6.78;2.42;;;14.70;99.90;;;;;;5069691;28;20025;-60
2021/08/25 03:51:37;;;;;;;3.30;1.85;;;14.60;99.90;;;;;;5067986;28;20655;-60
2021/08/25 03:54:03;;;;;;;6.88;2.40;;;14.60;99.90;;;;;;5072117;28;20025;-60
2021/08/25 03:56:29;;;;;;;6.20;2.05;;;14.70;99.90;;;;;;5071550;28;20032;-61
2021/08/25 03:58:54;;;;;;;3.05;1.98;;;14.60;99.90;;;;;;5071933;28;20423;-60
2021/08/25 04:01:20;;;;;;;4.75;2.10;;;14.70;99.90;;;;;;5073594;28;20028;-60
2021/08/25 04:03:45;;;;;;;3.60;1.75;;;14.70;99.90;;;;;;5072713;28;20024;-60
2021/08/25 04:06:11;;;;;;;3.83;2.00;;;14.60;99.90;;;;;;5071944;28;20509;-60
2021/08/25 04:08:37;;;;;;;4.97;1.80;;;14.50;99.90;;;;;;5071124;28;20036;-60
2021/08/25 04:11:02;;;;;;;3.38;1.90;;;14.50;99.90;;;;;;5071736;28;20027;-60
2021/08/25 04:13:28;;;;;;;7.25;2.17;;;14.60;99.90;;;;;;5072683;28;20028;-72
2021/08/25 04:15:53;;;;;;;6.00;2.20;;;14.60;99.90;;;;;;5071671;28;20386;-61
2021/08/25 04:18:19;;;;;;;5.68;1.83;;;14.70;99.90;;;;;;5072799;28;20094;-60
2021/08/25 04:20:45;;;;;;;5.25;2.63;;;14.60;99.90;;;;;;5072019;28;20458;-59
2021/08/25 04:23:11;;;;;;;5.45;3.05;;;14.70;99.90;;;;;;5073016;28;20055;-60
2021/08/25 04:25:36;;;;;;;7.47;2.72;;;14.50;99.90;;;;;;5072335;28;20028;-60
2021/08/25 04:28:02;;;;;;;7.32;2.33;;;14.30;99.90;;;;;;5072828;28;20469;-60
2021/08/25 04:30:28;;;;;;;4.05;2.58;;;14.20;99.90;;;;;;5072712;28;20033;-61
2021/08/25 04:32:54;;;;;;;4.35;2.60;;;14.30;99.90;;;;;;5073198;28;20025;-61
2021/08/25 04:35:19;;;;;;;6.22;2.35;;;14.30;99.90;;;;;;5072778;28;20067;-61
2021/08/25 04:37:45;;;;;;;4.13;1.88;;;14.40;99.90;;;;;;5071878;28;20024;-61
2021/08/25 04:40:11;;;;;;;6.25;2.50;;;14.50;99.90;;;;;;5072341;28;20068;-60
2021/08/25 04:42:36;;;;;;;4.07;2.10;;;14.40;99.90;;;;;;5072351;28;20046;-61
2021/08/25 04:45:03;;;;;;;5.90;2.08;;;14.50;99.90;;;;;;5072303;28;20419;-61
2021/08/25 04:47:28;;;;;;;7.47;2.20;;;14.50;99.90;;;;;;5070932;28;20039;-61
2021/08/25 04:49:54;;;;;;;5.70;2.05;;;14.60;99.90;;;;;;5070492;28;20029;-60
2021/08/25 04:52:19;;;;;;;4.65;2.42;;;14.70;99.90;;;;;;5072111;28;20047;-61
2021/08/25 04:54:45;;;;;;;3.70;2.38;;;14.60;99.90;;;;;;5071601;28;20032;-61
2021/08/25 04:57:11;;;;;;;5.20;2.65;;;14.70;99.90;;;;;;5072689;28;20028;-61
2021/08/25 04:59:36;;;;;;;6.20;3.17;;;14.70;99.90;;;;;;5071807;28;20465;-61
2021/08/25 05:02:03;;;;;;;4.20;2.38;;;14.70;99.90;;;;;;5070824;28;20046;-61
2021/08/25 05:04:29;;;;;;;4.10;2.22;;;14.70;99.90;;;;;;5072036;28;20028;-60
2021/08/25 05:06:54;;;;;;;3.42;1.77;;;14.90;99.90;;;;;;5080409;28;20028;-61
2021/08/25 05:09:20;;;;;;;6.50;2.42;;;14.80;99.90;;;;;;5092219;28;20417;-61
2021/08/25 05:11:46;;;;;;;4.03;2.00;;;14.80;99.90;;;;;;5090269;28;20032;-60
2021/08/25 05:14:11;;;;;;;4.07;1.88;;;14.70;99.90;;;;;;5091704;28;20051;-64
2021/08/25 05:16:37;;;;;;;3.50;1.73;;;15.10;99.90;;;;;;5091186;28;20021;-64
2021/08/25 05:19:03;;;;;;;6.30;2.00;;;15.50;99.90;;;;;;5092026;28;20154;-65
2021/08/25 05:21:28;;;;;;;6.07;2.65;;;15.70;99.90;;;;;;5091941;28;20040;-65
2021/08/25 05:23:54;;;;;;;4.85;2.63;;;15.90;99.90;;;;;;5091374;28;20035;-65
2021/08/25 05:26:20;;;;;;;4.50;2.08;;;16.10;99.90;;;;;;5091636;28;20031;-64
2021/08/25 05:28:45;;;;;;;14.27;2.00;;;16.50;99.90;;;;;;5090128;28;20414;-66
2021/08/25 05:31:11;;;;;;;3.97;2.13;;;16.30;99.90;;;;;;5090327;28;20055;-64
2021/08/25 05:33:37;;;;;;;8.85;2.00;;;16.50;99.90;;;;;;5090633;28;20115;-65
2021/08/25 05:36:02;;;;;;;6.03;2.08;;;16.50;99.90;;;;;;5091360;28;20217;-61
2021/08/25 05:38:28;;;;;;;12.00;2.45;;;16.30;99.90;;;;;;5090518;28;20460;-61
2021/08/25 05:40:54;;;;;;;4.20;2.35;;;16.10;99.90;;;;;;5089668;28;20319;-65
2021/08/25 05:43:20;;;;;;;4.55;2.22;;;15.90;99.90;;;;;;5091558;28;20445;-48
2021/08/25 05:45:46;;;;;;;17.05;8.50;;;15.80;99.90;;;;;;5088168;28;20481;-61
2021/08/25 05:48:12;;;;;;;6.28;2.70;;;16.10;99.90;;;;;;5089535;28;20109;-61
2021/08/25 05:50:37;;;;;;;11.27;3.60;;;16.10;99.90;;;;;;5090678;28;20043;-66
2021/08/25 05:53:03;;;;;;;4.72;2.78;;;16.20;99.90;;;;;;5089848;28;20047;-62
2021/08/25 05:55:29;;;;;;;9.23;2.85;;;16.20;99.90;;;;;;5085426;28;20409;-61
2021/08/25 05:57:55;;;;;;;3.85;2.25;;;16.20;99.90;;;;;;5088587;28;20031;-61
2021/08/25 06:00:20;;;;;;;5.93;2.17;;;16.20;99.90;;;;;;5090324;28;20066;-64
2021/08/25 06:02:46;;;;;;;10.15;3.50;;;16.20;99.90;;;;;;5089359;28;20425;-62
2021/08/25 06:05:13;;;;;;;4.18;1.92;;;16.30;99.90;;;;;;5089086;28;20046;-60
2021/08/25 06:07:40;;;;;;;4.18;2.30;;;16.40;99.90;;;;;;5087662;28;20473;-60
2021/08/25 06:10:07;;;;;;;4.40;2.58;;;16.40;99.90;;;;;;5089190;28;20028;-61
2021/08/25 06:12:33;;;;;;;6.10;2.38;;;16.30;99.90;;;;;;5086968;28;20052;-61
2021/08/25 06:15:00;;;;;;;4.18;2.00;;;16.60;99.90;;;;;;5087912;28;20032;-61
2021/08/25 06:17:25;;;;;;;6.18;3.03;;;16.50;99.90;;;;;;5087332;28;20115;-63
2021/08/25 06:19:51;;;;;;;4.43;2.78;;;16.80;99.90;;;;;;5087390;28;20119;-62
2021/08/25 06:22:17;;;;;;;7.22;2.50;;;17.00;99.90;;;;;;5087883;28;20051;-61
2021/08/25 06:24:43;;;;;;;4.05;1.95;;;17.30;99.90;;;;;;5087008;28;20093;-61
2021/08/25 06:27:09;;;;;;;7.65;2.58;;;17.20;99.90;;;;;;5088811;28;20060;-63
2021/08/25 06:29:35;;;;;;;7.70;2.60;;;17.40;99.90;;;;;;5088662;28;20419;-64
2021/08/25 06:32:00;;;;;;;3.92;2.20;;;17.50;99.90;;;;;;5089267;28;20426;-62
2021/08/25 06:34:26;;;;;;;9.70;2.50;;;17.80;99.90;;;;;;5089415;28;20024;-61
2021/08/25 06:36:52;;;;;;;6.90;2.15;;;17.90;99.90;;;;;;5082014;28;20118;-61
2021/08/25 06:39:17;;;;;;;4.40;2.15;;;17.90;99.90;;;;;;5088505;28;20076;-61
2021/08/25 06:41:43;;;;;;;5.88;2.38;;;17.80;99.90;;;;;;5088149;28;20030;-62
2021/08/25 06:44:09;;;;;;;7.95;3.08;;;17.80;99.90;;;;;;5087386;28;20020;-64
2021/08/25 06:46:35;;;;;;;4.30;2.00;;;17.90;99.90;;;;;;5088153;28;20029;-70
2021/08/25 06:49:00;;;;;;;6.25;2.15;;;17.70;99.90;;;;;;5070473;28;20138;-66
2021/08/25 06:51:26;;;;;;;7.80;3.80;;;17.70;99.90;;;;;;5082577;28;20028;-66
2021/08/25 06:53:52;;;;;;;6.30;2.85;;;17.90;99.90;;;;;;5089244;28;20051;-65
2021/08/25 06:56:17;;;;;;;7.55;2.50;;;18.10;99.90;;;;;;5089718;28;20093;-66
2021/08/25 06:58:43;;;;;;;4.55;2.58;;;18.20;99.90;;;;;;5089698;28;20124;-66
2021/08/25 07:01:09;;;;;;;6.47;2.25;;;18.30;99.90;;;;;;5090059;28;20426;-66
2021/08/25 07:03:36;;;;;;;4.35;2.33;;;18.40;99.90;;;;;;5071343;28;20032;-74
2021/08/25 07:06:02;;;;;;;11.27;2.83;;;18.40;99.90;;;;;;5072419;28;20408;-67
2021/08/25 07:08:28;;;;;;;4.15;2.35;;;18.40;99.90;;;;;;5089020;28;20058;-65
2021/08/25 07:10:53;;;;;;;3.88;2.45;;;18.70;99.90;;;;;;5090030;28;20028;-65
2021/08/25 07:13:19;;;;;;;8.30;2.80;;;18.70;99.90;;;;;;5090787;28;20111;-66
2021/08/25 07:15:44;;;;;;;2.83;1.92;;;18.80;99.90;;;;;;5088428;28;20036;-67
2021/08/25 07:18:10;;;;;;;5.03;2.72;;;18.90;99.90;;;;;;5088830;28;20032;-66
2021/08/25 07:20:36;;;;;;;3.65;2.33;;;19.20;99.90;;;;;;5089558;28;20118;-69
2021/08/25 07:23:01;;;;;;;4.20;2.22;;;19.30;99.90;;;;;;5090508;28;20060;-65
2021/08/25 07:25:27;;;;;;;7.72;3.15;;;19.30;99.90;;;;;;5088955;28;20035;-65
2021/08/25 07:27:53;;;;;;;7.45;2.55;;;19.60;99.90;;;;;;5091768;28;20088;-65
2021/08/25 07:30:19;;;;;;;3.28;1.88;;;19.90;99.50;;;;;;5094365;28;20043;-65
2021/08/25 07:32:44;;;;;;;5.20;2.40;;;20.20;98.90;;;;;;5093743;28;20353;-66
2021/08/25 07:35:11;;;;;;;3.75;2.15;;;20.30;98.60;;;;;;5092672;28;20021;-65
2021/08/25 07:37:38;;;;;;;6.68;2.33;;;20.60;98.70;;;;;;5091988;28;20113;-70
2021/08/25 07:40:05;;;;;;;6.50;2.03;;;20.80;98.00;;;;;;5093670;28;20480;-66
2021/08/25 07:42:31;;;;;;;5.15;1.90;;;20.80;97.90;;;;;;5093954;28;20024;-66
2021/08/25 07:44:57;;;;;;;7.55;2.45;;;21.00;97.50;;;;;;5091729;28;20024;-65
2021/08/25 07:47:23;;;;;;;6.80;2.60;;;21.00;97.20;;;;;;5092134;28;20040;-67
2021/08/25 07:49:48;;;;;;;5.57;3.25;;;21.10;97.70;;;;;;5091564;28;20016;-66
2021/08/25 07:52:14;;;;;;;4.40;2.45;;;21.30;96.60;;;;;;5093483;28;20036;-66
2021/08/25 07:54:40;;;;;;;4.60;1.83;;;21.30;96.90;;;;;;5093625;28;20020;-66
2021/08/25 07:57:06;;;;;;;3.90;1.73;;;21.50;96.50;;;;;;5092171;28;20085;-65
2021/08/25 07:59:32;;;;;;;5.25;2.10;;;21.70;97.20;;;;;;5091809;28;20447;-66
2021/08/25 08:01:57;;;;;;;3.85;1.90;;;21.60;97.20;;;;;;5091205;28;20325;-66
2021/08/25 08:04:24;;;;;;;2.72;1.75;;;21.70;96.90;;;;;;5093146;28;20020;-67
2021/08/25 08:06:49;;;;;;;7.47;2.83;;;21.90;96.10;;;;;;5092659;28;20024;-67
2021/08/25 08:09:15;;;;;;;8.38;2.33;;;22.00;96.20;;;;;;5093443;28;20220;-67
2021/08/25 08:11:41;;;;;;;5.38;2.90;;;22.10;95.90;;;;;;5090880;28;20035;-66
2021/08/25 08:14:07;;;;;;;3.55;2.15;;;22.20;95.60;;;;;;5092088;28;20067;-68
2021/08/25 08:16:35;;;;;;;5.20;2.13;;;22.40;95.90;;;;;;5093407;28;20168;-67
2021/08/25 08:19:22;;;;;;;2.88;2.03;;;22.50;95.00;;;;;;5092892;28;20028;-67
2021/08/25 08:21:49;;;;;;;4.35;1.88;;;22.60;94.80;;;;;;5092332;28;20044;-67
2021/08/25 08:24:16;;;;;;;4.15;2.22;;;23.10;95.30;;;;;;5091577;28;20028;-67
2021/08/25 08:26:42;;;;;;;3.08;2.08;;;23.30;93.80;;;;;;5092796;28;20020;-68
2021/08/25 08:29:08;;;;;;;3.60;1.65;;;23.10;93.40;;;;;;5093062;28;20200;-67
2021/08/25 08:31:33;;;;;;;3.55;2.25;;;23.30;93.40;;;;;;5091757;28;20129;-66
2021/08/25 08:33:59;;;;;;;3.25;1.98;;;23.50;92.30;;;;;;5090653;28;20596;-68
2021/08/25 08:36:25;;;;;;;3.90;2.45;;;23.50;93.30;;;;;;5092838;28;20024;-66
2021/08/25 08:38:51;;;;;;;5.32;2.30;;;23.90;92.30;;;;;;5091965;28;20050;-67
2021/08/25 08:41:17;;;;;;;2.70;2.00;;;24.00;92.40;;;;;;5093029;28;20024;-67
2021/08/25 08:43:46;;;;;;;3.45;1.95;;;24.40;91.90;;;;;;5092174;28;20449;-67
2021/08/25 08:46:17;;;;;;;7.22;2.15;;;24.60;91.50;;;;;;5092403;28;20371;-67
2021/08/25 08:48:43;;;;;;;4.65;1.98;;;24.60;91.50;;;;;;5091881;28;20032;-68
2021/08/25 08:51:16;;;;;;;3.58;2.22;;;24.50;90.50;;;;;;5092614;28;20032;-67
2021/08/25 08:53:42;;;;;;;5.32;2.17;;;24.50;91.10;;;;;;5091954;28;20032;-69
2021/08/25 08:56:08;;;;;;;4.45;1.85;;;24.90;90.60;;;;;;5092473;28;20480;-67
2021/08/25 08:58:36;;;;;;;4.60;1.98;;;25.00;89.70;;;;;;5091119;28;20067;-67
2021/08/25 09:01:02;;;;;;;2.60;1.77;;;25.20;90.20;;;;;;5090327;28;20426;-67
2021/08/25 09:03:28;;;;;;;4.78;2.25;;;25.40;89.20;;;;;;5091458;28;20074;-68
2021/08/25 09:06:01;;;;;;;4.28;2.38;;;25.70;89.50;;;;;;5090456;28;20043;-67
2021/08/25 09:08:35;;;;;;;7.13;2.53;;;25.60;89.00;;;;;;5090705;28;20089;-67
2021/08/25 09:11:12;;;;;;;4.78;2.20;;;25.20;88.20;;;;;;5091827;28;20047;-67
2021/08/25 09:13:38;;;;;;;4.85;2.88;;;25.60;88.40;;;;;;5092135;28;20024;-67
2021/08/25 09:16:04;;;;;;;3.50;1.92;;;26.00;87.10;;;;;;5089652;28;20373;-66
2021/08/25 09:18:30;;;;;;;7.80;2.22;;;26.10;86.90;;;;;;5090251;28;20418;-68
2021/08/25 09:20:56;;;;;;;3.85;2.00;;;26.20;84.90;;;;;;5088345;28;20032;-67
2021/08/25 09:23:24;;;;;;;3.92;1.85;;;25.30;85.20;;;;;;5091664;28;20032;-67
2021/08/25 09:25:54;;;;;;;21.58;4.13;;;25.70;86.10;;;;;;5089751;28;20123;-53
2021/08/25 09:28:34;;;;;;;5.85;2.38;;;25.80;84.80;;;;;;5091405;28;20054;-67
2021/08/25 09:31:13;;;;;;;5.38;2.13;;;26.00;85.30;;;;;;5090852;28;20028;-67
2021/08/25 09:33:45;;;;;;;4.53;2.00;;;26.20;84.70;;;;;;5089901;28;20039;-67
2021/08/25 09:36:14;;;;;;;5.20;1.88;;;26.00;83.60;;;;;;5091306;28;20039;-67
2021/08/25 09:38:50;;;;;;;4.13;2.33;;;26.10;83.40;;;;;;5090977;28;20256;-67
2021/08/25 09:41:16;;;;;;;6.43;2.53;;;26.40;83.40;;;;;;5089390;28;20024;-67
2021/08/25 09:43:44;;;;;;;4.50;2.10;;;26.50;82.90;;;;;;5090720;28;20027;-67
2021/08/25 09:46:23;;;;;;;5.13;2.55;;;26.80;83.40;;;;;;5091040;28;20050;-67
2021/08/25 09:48:57;;;;;;;9.13;2.40;;;26.60;82.30;;;;;;5090163;28;20043;-68
2021/08/25 09:51:26;;;;;;;6.25;2.38;;;26.80;81.90;;;;;;5090094;28;20028;-67
2021/08/25 09:54:04;;;;;;;4.45;2.58;;;26.80;81.80;;;;;;5090236;28;20063;-67
2021/08/25 09:56:33;;;;;;;6.10;2.60;;;26.90;80.80;;;;;;5091159;28;20480;-67
2021/08/25 09:59:00;;;;;;;5.78;2.53;;;27.10;81.20;;;;;;5090233;28;20542;-67
2021/08/25 10:01:26;;;;;;;5.15;2.85;;;27.00;81.40;;;;;;5090866;28;20079;-67
2021/08/25 10:03:53;;;;;;;4.38;2.53;;;27.10;80.90;;;;;;5088711;28;20034;-67
2021/08/25 10:06:21;;;;;;;3.67;2.72;;;26.60;80.70;;;;;;5089291;28;20048;-67
2021/08/25 10:08:48;;;;;;;5.55;2.72;;;26.50;80.90;;;;;;5090071;28;20036;-68
2021/08/25 10:11:17;;;;;;;4.70;2.75;;;26.60;81.00;;;;;;5090736;28;20073;-67
2021/08/25 10:13:43;;;;;;;4.75;2.38;;;26.50;81.20;;;;;;5088837;28;20024;-67
2021/08/25 10:16:13;;;;;;;3.60;2.42;;;26.60;80.20;;;;;;5090063;28;20028;-67
2021/08/25 10:18:41;;;;;;;5.43;2.72;;;26.40;78.50;;;;;;5089245;28;20105;-68
2021/08/25 10:21:36;;;;;;;5.38;2.13;;;26.40;78.30;;;;;;5087428;28;20496;-67
2021/08/25 10:24:06;;;;;;;5.40;2.42;;;26.30;79.80;;;;;;5089928;28;20093;-67
2021/08/25 10:26:57;;;;;;;2.73;2.10;;;26.00;79.50;;;;;;5088954;28;20073;-67
2021/08/25 10:29:23;;;;;;;5.22;2.90;;;26.20;79.20;;;;;;5089998;28;20493;-67
2021/08/25 10:31:48;;;;;;;5.13;2.72;;;26.60;77.80;;;;;;5089951;28;20036;-67
2021/08/25 10:34:15;;;;;;;4.90;2.58;;;26.90;75.60;;;;;;5090132;28;20031;-66
2021/08/25 10:36:40;;;;;;;5.25;2.47;;;26.70;75.20;;;;;;5088749;28;20031;-68
2021/08/25 10:39:31;;;;;;;3.35;2.22;;;26.60;75.90;;;;;;5087974;28;20385;-67
2021/08/25 10:41:57;;;;;;;3.25;2.60;;;26.60;76.10;;;;;;5089105;28;20385;-66
2021/08/25 10:44:41;;;;;;;3.67;2.95;;;26.90;74.60;;;;;;5088146;28;20024;-67
2021/08/25 10:47:09;;;;;;;3.63;2.33;;;27.00;72.00;;;;;;5089010;28;20380;-67
2021/08/25 10:49:37;;;;;;;4.43;2.75;;;27.30;73.30;;;;;;5088396;28;20043;-67
2021/08/25 10:52:06;;;;;;;3.45;2.40;;;27.70;72.70;;;;;;5087975;28;20438;-67
2021/08/25 10:54:35;;;;;;;3.33;2.63;;;27.90;72.30;;;;;;5088783;28;20058;-69
2021/08/25 10:57:17;;;;;;;4.95;2.60;;;28.10;71.80;;;;;;5089150;28;20353;-67
2021/08/25 10:59:43;;;;;;;5.72;2.88;;;28.20;72.00;;;;;;5088143;28;20051;-68
2021/08/25 11:02:10;;;;;;;3.22;2.45;;;28.60;70.50;;;;;;5088969;28;20082;-68
2021/08/25 11:04:36;;;;;;;3.47;2.30;;;28.50;71.10;;;;;;5092414;28;20063;-68
2021/08/25 11:07:06;;;;;;;4.45;2.67;;;28.00;71.20;;;;;;5092985;28;20063;-67
2021/08/25 11:09:33;;;;;;;4.32;2.33;;;27.40;71.70;;;;;;5092331;28;20028;-67
2021/08/25 11:12:08;;;;;;;6.10;2.40;;;27.00;73.70;;;;;;5093250;28;20119;-67
2021/08/25 11:14:37;;;;;;;3.50;2.30;;;27.10;72.90;;;;;;5092449;28;20024;-67
2021/08/25 11:17:06;;;;;;;6.38;3.03;;;27.30;73.50;;;;;;5092120;28;20063;-68
2021/08/25 11:19:42;;;;;;;5.07;2.50;;;27.30;71.00;;;;;;5092409;28;20059;-67
2021/08/25 11:22:14;;;;;;;3.38;2.17;;;27.10;72.10;;;;;;5091512;28;20056;-67
2021/08/25 11:24:41;;;;;;;3.90;2.47;;;27.20;72.40;;;;;;5092686;28;20078;-67
2021/08/25 11:27:37;;;;;;;4.72;2.15;;;27.50;71.80;;;;;;5091955;28;20080;-67
2021/08/25 11:30:08;;;;;;;7.72;2.35;;;28.30;71.20;;;;;;5034022;28;20077;-68
2021/08/25 11:32:34;;;;;;;;;;;28.60;69.90;;;;;;5034368;28;20128;-68
2021/08/25 11:35:00;;;;;;;4.05;2.90;;;28.80;70.40;;;;;;5049807;28;19943;-68
2021/08/25 11:37:26;;;;;;;3.35;2.25;;;29.10;69.40;;;;;;5050527;28;20041;-68
2021/08/25 11:40:03;;;;;;;6.72;3.10;;;29.30;68.70;;;;;;5050045;28;20214;-69
2021/08/25 11:42:31;;;;;;;8.40;2.97;;;29.60;68.60;;;;;;5050731;28;20044;-67
2021/08/25 11:44:56;;;;;;;6.55;2.33;;;29.50;68.70;;;;;;5049967;28;20044;-68
2021/08/25 11:47:22;;;;;;;4.45;2.22;;;29.50;67.30;;;;;;5049689;28;20036;-67
2021/08/25 11:49:54;;;;;;;4.30;2.50;;;29.50;66.90;;;;;;5043785;28;20041;-67
2021/08/25 11:52:31;;;;;;;4.40;1.95;;;29.20;67.40;;;;;;5049956;28;20029;-67
2021/08/25 11:55:00;;;;;;;4.00;2.40;;;29.10;67.60;;;;;;5049950;28;20099;-67
2021/08/25 11:57:43;;;;;;;7.45;2.20;;;29.10;67.00;;;;;;5050380;28;20427;-66
2021/08/25 12:00:11;;;;;;;3.47;2.40;;;29.10;67.60;;;;;;5052794;28;20386;-66
2021/08/25 12:02:57;;;;;;;3.72;1.88;;;29.10;67.40;;;;;;5072916;28;20028;-66
2021/08/25 12:05:36;;;;;;;7.70;2.72;;;28.80;66.90;;;;;;5072860;28;20067;-66
2021/08/25 12:08:05;;;;;;;4.00;2.33;;;28.60;67.60;;;;;;5071922;28;20032;-66
2021/08/25 12:10:31;;;;;;;4.13;2.35;;;28.70;67.30;;;;;;5072464;28;20371;-66
2021/08/25 12:12:57;;;;;;;7.88;2.92;;;29.00;67.40;;;;;;5071592;28;20035;-66
2021/08/25 12:15:42;;;;;;;13.50;3.30;;;29.30;68.00;;;;;;5087290;28;20326;-66
2021/08/25 12:18:08;;;;;;;6.65;2.75;;;29.40;65.40;;;;;;5072081;28;20140;-66
2021/08/25 12:20:38;;;;;;;7.82;2.50;;;29.60;65.40;;;;;;5072261;28;20036;-66
2021/08/25 12:23:06;;;;;;;3.67;2.13;;;29.70;63.80;;;;;;5086742;28;20517;-66
2021/08/25 12:25:41;;;;;;;11.35;2.95;;;29.90;65.50;;;;;;5072475;28;20028;-66
2021/08/25 12:28:11;;;;;;;5.07;2.67;;;30.10;64.60;;;;;;5071421;28;20032;-66
2021/08/25 12:30:39;;;;;;;4.75;1.98;;;30.00;64.80;;;;;;5087250;28;20065;-66
2021/08/25 12:33:06;;;;;;;5.97;2.83;;;30.20;64.90;;;;;;5086826;28;20055;-67
2021/08/25 12:35:34;;;;;;;6.35;2.75;;;30.10;64.20;;;;;;5087541;28;20416;-65
2021/08/25 12:38:00;;;;;;;6.22;2.20;;;29.80;64.70;;;;;;5071487;28;20043;-67
2021/08/25 12:40:26;;;;;;;3.30;2.53;;;29.80;65.20;;;;;;5072200;28;20478;-66
2021/08/25 12:42:52;;;;;;;4.85;2.58;;;30.10;66.00;;;;;;5072399;28;20123;-66
2021/08/25 12:45:20;;;;;;;2.53;2.13;;;30.10;64.50;;;;;;5071473;28;20100;-67
2021/08/25 12:47:48;;;;;;;4.03;2.47;;;30.30;63.80;;;;;;5072177;28;20068;-67
2021/08/25 12:50:14;;;;;;;5.22;1.92;;;30.40;63.40;;;;;;5071402;28;20510;-67